createdAt,value
2019-05-23T00:01:41.402Z,99.90
2019-05-23T00:04:26.602Z,99.90
2019-05-23T00:06:58.692Z,99.90
2019-05-23T00:09:30.170Z,99.90
2019-05-23T00:12:04.563Z,99.90
2019-05-23T00:14:39.952Z,99.90
2019-05-23T00:17:15.027Z,99.90
2019-05-23T00:19:44.658Z,99.90
2019-05-23T00:22:14.803Z,99.90
2019-05-23T00:24:45.964Z,99.90
2019-05-23T00:27:16.330Z,99.90
2019-05-23T00:29:48.876Z,99.90
2019-05-23T00:32:22.570Z,99.90
2019-05-23T00:34:53.922Z,99.90
2019-05-23T00:37:24.929Z,99.90
2019-05-23T00:39:55.323Z,99.90
2019-05-23T00:42:26.158Z,99.90
2019-05-23T00:44:57.648Z,99.90
2019-05-23T00:47:28.698Z,99.90
2019-05-23T00:49:58.363Z,99.90
2019-05-23T00:52:29.089Z,99.90
2019-05-23T00:55:01.129Z,99.90
2019-05-23T00:57:31.461Z,99.90
2019-05-23T01:00:01.935Z,99.90
2019-05-23T01:02:33.814Z,99.90
2019-05-23T01:05:05.194Z,99.90
2019-05-23T01:07:35.289Z,99.90
2019-05-23T01:10:09.974Z,99.90
2019-05-23T01:12:40.484Z,99.90
2019-05-23T01:15:11.149Z,99.90
2019-05-23T01:17:42.330Z,99.90
2019-05-23T01:20:14.810Z,99.90
2019-05-23T01:22:45.885Z,99.90
2019-05-23T01:25:18.350Z,99.90
2019-05-23T01:27:47.982Z,99.90
2019-05-23T01:30:23.465Z,99.90
2019-05-23T01:32:55.039Z,99.90
2019-05-23T01:35:26.052Z,99.90
2019-05-23T01:37:56.914Z,99.90
2019-05-23T01:40:27.758Z,99.90
2019-05-23T01:42:58.392Z,99.90
2019-05-23T01:45:28.902Z,99.90
2019-05-23T01:47:59.247Z,99.90
2019-05-23T01:50:29.166Z,99.90
2019-05-23T01:52:59.393Z,99.90
2019-05-23T01:55:29.799Z,99.90
2019-05-23T01:57:59.615Z,99.90
2019-05-23T02:00:31.469Z,99.90
2019-05-23T02:03:01.122Z,99.90
2019-05-23T02:05:31.494Z,99.90
2019-05-23T02:08:02.531Z,99.90
2019-05-23T02:10:32.654Z,99.90
2019-05-23T02:13:02.229Z,99.90
2019-05-23T02:15:33.604Z,99.90
2019-05-23T02:18:04.612Z,99.90
2019-05-23T02:20:35.192Z,99.90
2019-05-23T02:23:06.200Z,99.90
2019-05-23T02:25:36.686Z,99.90
2019-05-23T02:28:08.359Z,99.90
2019-05-23T02:30:39.420Z,99.90
2019-05-23T02:33:10.216Z,99.90
2019-05-23T02:35:40.724Z,99.90
2019-05-23T02:38:11.121Z,99.90
2019-05-23T02:40:43.924Z,99.90
2019-05-23T02:43:19.769Z,99.90
2019-05-23T02:45:55.258Z,99.90
2019-05-23T02:48:29.056Z,99.90
2019-05-23T02:51:03.512Z,99.90
2019-05-23T02:53:37.480Z,99.90
2019-05-23T02:56:11.954Z,99.90
2019-05-23T02:59:28.406Z,99.90
2019-05-23T03:02:36.368Z,99.90
2019-05-23T03:05:10.468Z,99.90
2019-05-23T03:07:40.804Z,99.90
2019-05-23T03:10:13.657Z,99.90
2019-05-23T03:12:46.319Z,99.90
2019-05-23T03:15:16.997Z,99.90
2019-05-23T03:17:54.865Z,99.90
2019-05-23T03:20:28.346Z,99.90
2019-05-23T03:23:07.181Z,99.90
2019-05-23T03:25:41.493Z,99.90
2019-05-23T03:28:14.672Z,99.90
2019-05-23T03:30:49.005Z,99.90
2019-05-23T03:33:20.761Z,99.90
2019-05-23T03:35:51.954Z,99.90
2019-05-23T03:38:21.701Z,99.90
2019-05-23T03:40:51.320Z,99.90
2019-05-23T03:43:21.310Z,99.90
2019-05-23T03:45:52.687Z,99.90
2019-05-23T03:48:24.244Z,99.90
2019-05-23T03:50:55.898Z,99.90
2019-05-23T03:53:27.568Z,99.90
2019-05-23T03:55:59.417Z,99.90
2019-05-23T03:58:30.008Z,99.90
2019-05-23T04:01:01.417Z,99.90
2019-05-23T04:03:31.614Z,99.90
2019-05-23T04:06:02.051Z,99.90
2019-05-23T04:08:32.395Z,99.90
2019-05-23T04:11:02.155Z,99.90
2019-05-23T04:13:31.874Z,99.90
2019-05-23T04:16:01.989Z,99.90
2019-05-23T04:18:33.136Z,99.90
2019-05-23T04:21:02.709Z,99.90
2019-05-23T04:23:32.600Z,99.90
2019-05-23T04:26:02.320Z,99.90
2019-05-23T04:28:32.983Z,99.90
2019-05-23T04:31:02.995Z,99.90
2019-05-23T04:33:33.082Z,99.90
2019-05-23T04:36:03.339Z,99.90
2019-05-23T04:38:36.236Z,99.90
2019-05-23T04:41:04.931Z,99.90
2019-05-23T04:43:34.483Z,99.90
2019-05-23T04:46:04.865Z,99.90
2019-05-23T04:48:34.428Z,99.90
2019-05-23T04:51:05.778Z,99.90
2019-05-23T04:53:36.128Z,99.90
2019-05-23T04:56:06.678Z,99.90
2019-05-23T04:58:36.878Z,99.90
2019-05-23T05:01:07.238Z,99.90
2019-05-23T05:03:36.867Z,99.90
2019-05-23T05:06:07.641Z,99.90
2019-05-23T05:08:37.837Z,99.90
2019-05-23T05:11:08.547Z,99.90
2019-05-23T05:13:39.317Z,99.90
2019-05-23T05:16:09.738Z,99.90
2019-05-23T05:18:39.843Z,99.90
2019-05-23T05:21:10.183Z,99.90
2019-05-23T05:23:39.803Z,99.90
2019-05-23T05:26:14.096Z,99.90
2019-05-23T05:28:43.742Z,99.90
2019-05-23T05:31:13.359Z,99.90
2019-05-23T05:33:43.224Z,99.90
2019-05-23T05:36:12.945Z,99.90
2019-05-23T05:38:43.475Z,99.90
2019-05-23T05:41:13.643Z,99.90
2019-05-23T05:43:43.541Z,99.90
2019-05-23T05:46:13.952Z,99.90
2019-05-23T05:48:43.616Z,99.90
2019-05-23T05:51:13.455Z,99.90
2019-05-23T05:53:43.281Z,99.90
2019-05-23T05:56:12.930Z,99.90
2019-05-23T05:58:43.581Z,99.90
2019-05-23T06:01:30.902Z,99.90
2019-05-23T06:03:47.574Z,99.90
2019-05-23T06:06:25.209Z,99.90
2019-05-23T06:08:56.483Z,99.90
2019-05-23T06:11:26.677Z,99.90
2019-05-23T06:13:56.272Z,99.90
2019-05-23T06:16:26.866Z,99.90
2019-05-23T06:18:57.237Z,99.90
2019-05-23T06:21:28.922Z,99.90
2019-05-23T06:23:59.704Z,99.90
2019-05-23T06:26:29.550Z,99.90
2019-05-23T06:28:59.115Z,99.90
2019-05-23T06:31:29.874Z,99.90
2019-05-23T06:33:59.712Z,99.90
2019-05-23T06:36:29.831Z,99.90
2019-05-23T06:38:59.812Z,99.90
2019-05-23T06:41:29.920Z,99.90
2019-05-23T06:44:00.236Z,99.90
2019-05-23T06:46:30.320Z,99.90
2019-05-23T06:49:00.216Z,99.90
2019-05-23T06:51:29.847Z,99.90
2019-05-23T06:53:59.771Z,99.90
2019-05-23T06:56:29.609Z,99.90
2019-05-23T06:58:59.169Z,99.90
2019-05-23T07:01:28.883Z,99.90
2019-05-23T07:03:58.941Z,99.90
2019-05-23T07:06:28.876Z,99.90
2019-05-23T07:08:59.305Z,99.90
2019-05-23T07:11:29.214Z,99.90
2019-05-23T07:13:58.906Z,99.90
2019-05-23T07:16:28.447Z,99.90
2019-05-23T07:18:58.833Z,99.90
2019-05-23T07:21:29.381Z,99.90
2019-05-23T07:23:58.969Z,99.90
2019-05-23T07:26:29.993Z,99.90
2019-05-23T07:29:00.222Z,99.90
2019-05-23T07:31:31.405Z,99.90
2019-05-23T07:34:02.643Z,99.90
2019-05-23T07:36:33.421Z,99.90
2019-05-23T07:39:03.202Z,99.90
2019-05-23T07:41:32.831Z,99.90
2019-05-23T07:44:03.181Z,99.90
2019-05-23T07:46:33.358Z,99.90
2019-05-23T07:49:03.422Z,99.90
2019-05-23T07:51:32.939Z,99.90
2019-05-23T07:54:02.356Z,99.90
2019-05-23T07:56:39.235Z,99.90
2019-05-23T07:59:09.465Z,99.90
2019-05-23T08:01:45.098Z,99.90
2019-05-23T08:04:22.033Z,99.90
2019-05-23T08:06:48.931Z,99.90
2019-05-23T08:09:19.488Z,99.90
2019-05-23T08:11:49.857Z,99.90
2019-05-23T08:14:19.481Z,99.00
2019-05-23T08:16:49.857Z,99.90
2019-05-23T08:19:20.439Z,97.90
2019-05-23T08:21:50.008Z,97.70
2019-05-23T08:24:21.146Z,97.40
2019-05-23T08:26:50.792Z,97.70
2019-05-23T08:29:26.179Z,95.40
2019-05-23T08:31:53.866Z,92.80
2019-05-23T08:34:40.096Z,93.30
2019-05-23T08:36:55.499Z,92.50
2019-05-23T08:39:26.872Z,92.90
2019-05-23T08:41:56.735Z,92.50
2019-05-23T08:44:26.293Z,92.60
2019-05-23T08:46:56.713Z,92.50
2019-05-23T08:49:27.724Z,92.50
2019-05-23T08:51:57.519Z,93.60
2019-05-23T08:54:27.257Z,93.70
2019-05-23T08:56:57.463Z,93.70
2019-05-23T08:59:28.435Z,92.90
2019-05-23T09:01:58.467Z,93.20
2019-05-23T09:04:28.012Z,92.40
2019-05-23T09:06:58.670Z,92.40
2019-05-23T09:09:30.426Z,92.40
2019-05-23T09:12:01.298Z,91.60
2019-05-23T09:14:30.929Z,91.80
2019-05-23T09:17:00.890Z,90.80
2019-05-23T09:19:30.516Z,90.80
2019-05-23T09:22:01.038Z,88.50
2019-05-23T09:24:30.597Z,87.20
2019-05-23T09:27:00.309Z,87.40
2019-05-23T09:29:30.139Z,87.30
2019-05-23T09:31:59.694Z,82.80
2019-05-23T09:34:29.870Z,84.00
2019-05-23T09:37:00.492Z,82.20
2019-05-23T09:39:30.393Z,82.60
2019-05-23T09:42:00.158Z,82.20
2019-05-23T09:44:29.776Z,82.00
2019-05-23T09:46:59.373Z,80.40
2019-05-23T09:49:29.096Z,78.90
2019-05-23T09:52:01.389Z,79.60
2019-05-23T09:54:30.714Z,76.80
2019-05-23T09:57:00.293Z,76.80
2019-05-23T09:59:30.065Z,75.50
2019-05-23T10:02:01.371Z,75.80
2019-05-23T10:04:31.123Z,75.90
2019-05-23T10:07:01.612Z,75.60
2019-05-23T10:09:31.240Z,75.30
2019-05-23T10:12:01.179Z,74.80
2019-05-23T10:14:34.920Z,74.20
2019-05-23T10:17:04.747Z,73.60
2019-05-23T10:19:35.431Z,73.60
2019-05-23T10:22:06.686Z,76.90
2019-05-23T10:24:36.530Z,77.30
2019-05-23T10:27:07.895Z,76.00
2019-05-23T10:29:37.572Z,76.50
2019-05-23T10:32:08.849Z,75.70
2019-05-23T10:34:38.532Z,71.70
2019-05-23T10:37:09.730Z,72.90
2019-05-23T10:39:40.809Z,75.40
2019-05-23T10:42:10.662Z,74.90
2019-05-23T10:44:40.226Z,74.10
2019-05-23T10:47:10.064Z,76.30
2019-05-23T10:49:39.828Z,74.40
2019-05-23T10:52:10.203Z,74.20
2019-05-23T10:54:40.298Z,72.50
2019-05-23T10:57:10.228Z,70.50
2019-05-23T10:59:40.114Z,73.00
2019-05-23T11:02:10.551Z,75.10
2019-05-23T11:04:40.774Z,72.90
2019-05-23T11:07:11.579Z,72.10
2019-05-23T11:09:41.457Z,72.30
2019-05-23T11:12:12.229Z,72.30
2019-05-23T11:14:41.783Z,71.40
2019-05-23T11:17:11.425Z,71.90
2019-05-23T11:19:41.976Z,70.90
2019-05-23T11:22:11.635Z,71.60
2019-05-23T11:24:41.182Z,72.40
2019-05-23T11:27:10.808Z,73.40
2019-05-23T11:29:40.734Z,70.00
2019-05-23T11:32:10.964Z,70.40
2019-05-23T11:34:40.591Z,70.70
2019-05-23T11:37:11.529Z,70.00
2019-05-23T11:39:49.297Z,69.50
2019-05-23T11:42:12.519Z,69.10
2019-05-23T11:44:42.310Z,70.70
2019-05-23T11:47:12.815Z,69.10
2019-05-23T11:49:44.068Z,69.30
2019-05-23T11:52:14.901Z,68.90
2019-05-23T11:54:44.791Z,68.40
2019-05-23T11:57:15.601Z,64.10
2019-05-23T11:59:53.279Z,61.90
2019-05-23T12:02:34.068Z,64.20
2019-05-23T12:05:06.373Z,66.00
2019-05-23T12:07:36.574Z,65.10
2019-05-23T12:10:07.712Z,64.20
2019-05-23T12:12:38.017Z,62.90
2019-05-23T12:15:13.517Z,62.50
2019-05-23T12:17:44.160Z,61.60
2019-05-23T12:20:15.085Z,61.20
2019-05-23T12:22:45.194Z,60.50
2019-05-23T12:25:23.012Z,62.40
2019-05-23T12:27:49.242Z,62.80
2019-05-23T12:30:19.306Z,63.20
2019-05-23T12:32:49.635Z,63.50
2019-05-23T12:35:19.255Z,64.80
2019-05-23T12:37:48.905Z,65.40
2019-05-23T12:40:19.304Z,66.60
2019-05-23T12:42:48.938Z,66.00
2019-05-23T12:45:18.991Z,66.70
2019-05-23T12:47:54.408Z,65.00
2019-05-23T12:50:31.196Z,65.00
2019-05-23T12:53:01.162Z,64.60
2019-05-23T12:55:30.822Z,64.10
2019-05-23T12:58:00.507Z,63.50
2019-05-23T13:00:35.172Z,64.00
2019-05-23T13:03:06.788Z,64.40
2019-05-23T13:05:36.623Z,64.70
2019-05-23T13:08:06.497Z,65.30
2019-05-23T13:10:36.937Z,66.00
2019-05-23T13:13:06.817Z,68.40
2019-05-23T13:15:36.370Z,67.60
2019-05-23T13:18:06.409Z,67.70
2019-05-23T13:20:37.709Z,68.00
2019-05-23T13:23:08.163Z,69.20
2019-05-23T13:25:38.859Z,71.40
2019-05-23T13:28:08.456Z,71.60
2019-05-23T13:30:38.175Z,72.10
2019-05-23T13:33:08.363Z,71.60
2019-05-23T13:35:38.295Z,71.20
2019-05-23T13:38:08.373Z,72.50
2019-05-23T13:40:37.945Z,71.70
2019-05-23T13:43:09.092Z,73.00
2019-05-23T13:45:39.122Z,73.40
2019-05-23T13:48:09.211Z,74.60
2019-05-23T13:50:39.964Z,74.10
2019-05-23T13:53:10.797Z,73.20
2019-05-23T13:55:40.679Z,72.20
2019-05-23T13:58:10.585Z,72.30
2019-05-23T14:00:40.414Z,72.90
2019-05-23T14:03:11.308Z,73.30
2019-05-23T14:05:41.059Z,72.40
2019-05-23T14:08:13.137Z,72.40
2019-05-23T14:10:42.431Z,72.30
2019-05-23T14:13:11.982Z,72.60
2019-05-23T14:15:43.542Z,72.10
2019-05-23T14:18:14.920Z,72.00
2019-05-23T14:20:44.627Z,73.10
2019-05-23T14:23:24.578Z,73.80
2019-05-23T14:25:55.058Z,73.70
2019-05-23T14:28:24.620Z,74.70
2019-05-23T14:31:08.334Z,72.60
2019-05-23T14:33:48.028Z,73.20
2019-05-23T14:36:22.816Z,73.60
2019-05-23T14:38:54.048Z,73.90
2019-05-23T14:41:24.275Z,73.10
2019-05-23T14:43:54.308Z,73.20
2019-05-23T14:46:25.970Z,72.70
2019-05-23T14:49:03.148Z,72.60
2019-05-23T14:51:40.927Z,73.20
2019-05-23T14:54:28.486Z,74.70
2019-05-23T14:56:58.086Z,73.50
2019-05-23T14:59:28.458Z,74.30
2019-05-23T15:01:58.600Z,71.40
2019-05-23T15:04:29.135Z,69.40
2019-05-23T15:06:58.767Z,70.60
2019-05-23T15:09:28.412Z,70.60
2019-05-23T15:11:58.466Z,70.70
2019-05-23T15:14:28.117Z,71.70
2019-05-23T15:16:57.751Z,72.20
2019-05-23T15:19:40.496Z,72.00
2019-05-23T15:21:58.930Z,72.50
2019-05-23T15:24:29.793Z,70.60
2019-05-23T15:26:59.484Z,70.00
2019-05-23T15:29:29.591Z,70.80
2019-05-23T15:32:02.675Z,69.80
2019-05-23T15:34:30.549Z,69.70
2019-05-23T15:37:00.182Z,69.60
2019-05-23T15:39:30.206Z,68.20
2019-05-23T15:41:59.766Z,66.00
2019-05-23T15:44:30.516Z,61.50
2019-05-23T15:47:00.549Z,59.90
2019-05-23T15:49:30.260Z,61.30
2019-05-23T15:52:02.421Z,62.40
2019-05-23T15:54:43.039Z,60.50
2019-05-23T15:57:30.185Z,59.40
2019-05-23T16:00:02.173Z,58.80
2019-05-23T16:02:34.005Z,59.00
2019-05-23T16:05:05.602Z,60.00
2019-05-23T16:07:35.764Z,60.60
2019-05-23T16:10:08.040Z,60.00
2019-05-23T16:12:38.041Z,59.60
2019-05-23T16:15:08.284Z,60.80
2019-05-23T16:17:38.020Z,61.10
2019-05-23T16:20:08.704Z,61.20
2019-05-23T16:22:38.662Z,59.80
2019-05-23T16:25:08.599Z,60.00
2019-05-23T16:27:38.809Z,60.40
2019-05-23T16:30:09.325Z,61.00
2019-05-23T16:32:39.139Z,59.90
2019-05-23T16:35:09.009Z,59.90
2019-05-23T16:37:38.565Z,58.80
2019-05-23T16:40:08.926Z,60.00
2019-05-23T16:42:38.479Z,61.40
2019-05-23T16:45:09.907Z,62.20
2019-05-23T16:47:39.552Z,63.20
2019-05-23T16:50:09.544Z,62.40
2019-05-23T16:52:39.734Z,63.00
2019-05-23T16:55:28.188Z,63.20
2019-05-23T16:57:59.757Z,63.50
2019-05-23T17:00:47.480Z,64.20
2019-05-23T17:03:18.759Z,64.10
2019-05-23T17:05:50.264Z,63.90
2019-05-23T17:08:37.609Z,64.20
2019-05-23T17:11:09.052Z,64.60
2019-05-23T17:13:40.384Z,65.40
2019-05-23T17:16:26.712Z,66.20
2019-05-23T17:18:58.094Z,66.60
2019-05-23T17:21:27.759Z,66.50
2019-05-23T17:24:02.009Z,66.50
2019-05-23T17:26:49.380Z,66.40
2019-05-23T17:29:20.919Z,66.60
2019-05-23T17:31:52.136Z,66.90
2019-05-23T17:34:22.042Z,67.60
2019-05-23T17:36:51.832Z,67.20
2019-05-23T17:39:22.057Z,66.90
2019-05-23T17:41:52.078Z,67.30
2019-05-23T17:44:22.958Z,67.30
2019-05-23T17:46:52.510Z,67.30
2019-05-23T17:49:22.312Z,68.40
2019-05-23T17:51:51.877Z,68.00
2019-05-23T17:54:21.897Z,68.20
2019-05-23T17:56:51.468Z,68.20
2019-05-23T17:59:21.094Z,67.10
2019-05-23T18:01:52.020Z,67.60
2019-05-23T18:04:21.696Z,67.80
2019-05-23T18:06:52.661Z,68.10
2019-05-23T18:09:22.357Z,68.20
2019-05-23T18:11:55.469Z,68.50
2019-05-23T18:14:24.320Z,68.20
2019-05-23T18:16:54.217Z,68.10
2019-05-23T18:19:24.076Z,68.10
2019-05-23T18:21:54.179Z,68.70
2019-05-23T18:24:23.969Z,68.30
2019-05-23T18:26:54.088Z,68.70
2019-05-23T18:29:23.930Z,68.30
2019-05-23T18:31:53.474Z,68.80
2019-05-23T18:34:23.632Z,69.00
2019-05-23T18:36:54.129Z,69.10
2019-05-23T18:39:25.143Z,68.80
2019-05-23T18:41:54.961Z,69.00
2019-05-23T18:44:25.319Z,69.40
2019-05-23T18:46:56.586Z,69.40
2019-05-23T18:49:26.958Z,69.10
2019-05-23T18:51:56.729Z,69.10
2019-05-23T18:54:26.386Z,69.60
2019-05-23T18:56:56.033Z,69.80
2019-05-23T18:59:25.920Z,69.90
2019-05-23T19:01:56.401Z,70.20
2019-05-23T19:04:26.342Z,70.70
2019-05-23T19:06:56.942Z,69.50
2019-05-23T19:09:28.216Z,69.30
2019-05-23T19:11:58.848Z,69.90
2019-05-23T19:14:28.407Z,69.70
2019-05-23T19:16:58.216Z,70.10
2019-05-23T19:19:27.923Z,70.20
2019-05-23T19:21:57.645Z,70.10
2019-05-23T19:24:27.482Z,70.20
2019-05-23T19:26:58.053Z,71.10
2019-05-23T19:29:28.011Z,71.20
2019-05-23T19:31:57.636Z,71.50
2019-05-23T19:34:27.950Z,71.10
2019-05-23T19:36:57.670Z,71.40
2019-05-23T19:39:27.982Z,71.40
2019-05-23T19:41:57.511Z,71.90
2019-05-23T19:44:27.301Z,72.10
2019-05-23T19:46:56.863Z,71.30
2019-05-23T19:49:27.537Z,71.40
2019-05-23T19:51:57.295Z,72.20
2019-05-23T19:54:28.480Z,72.80
2019-05-23T19:56:58.615Z,73.40
2019-05-23T19:59:28.725Z,73.80
2019-05-23T20:01:58.138Z,74.40
2019-05-23T20:04:31.457Z,74.80
2019-05-23T20:07:01.672Z,73.80
2019-05-23T20:09:31.998Z,73.20
2019-05-23T20:12:02.777Z,72.70
2019-05-23T20:14:32.330Z,72.80
2019-05-23T20:17:02.422Z,72.70
2019-05-23T20:19:32.057Z,72.30
2019-05-23T20:22:01.734Z,72.10
2019-05-23T20:24:31.293Z,71.60
2019-05-23T20:27:01.063Z,71.60
2019-05-23T20:29:30.606Z,71.70
2019-05-23T20:32:00.515Z,71.50
2019-05-23T20:34:30.539Z,71.10
2019-05-23T20:37:00.100Z,71.00
2019-05-23T20:39:30.831Z,71.40
2019-05-23T20:42:10.957Z,71.90
2019-05-23T20:44:32.007Z,70.70
2019-05-23T20:47:01.601Z,71.30
2019-05-23T20:49:31.899Z,71.60
2019-05-23T20:52:02.011Z,72.00
2019-05-23T20:54:33.678Z,72.70
2019-05-23T20:57:03.276Z,73.20
2019-05-23T20:59:32.908Z,74.20
2019-05-23T21:02:03.082Z,75.00
2019-05-23T21:04:32.703Z,75.40
2019-05-23T21:07:02.290Z,76.20
2019-05-23T21:09:32.055Z,76.00
2019-05-23T21:12:01.704Z,77.50
2019-05-23T21:14:31.617Z,78.30
2019-05-23T21:17:01.282Z,78.60
2019-05-23T21:19:30.886Z,78.30
2019-05-23T21:22:00.725Z,78.80
2019-05-23T21:24:32.048Z,79.60
2019-05-23T21:27:02.021Z,80.20
2019-05-23T21:29:31.619Z,80.70
2019-05-23T21:32:01.370Z,81.20
2019-05-23T21:34:31.082Z,81.60
2019-05-23T21:37:00.699Z,82.50
2019-05-23T21:39:30.261Z,83.30
2019-05-23T21:42:00.596Z,84.60
2019-05-23T21:44:30.186Z,86.20
2019-05-23T21:46:59.822Z,87.50
2019-05-23T21:49:29.653Z,88.80
2019-05-23T21:51:59.571Z,90.10
2019-05-23T21:54:29.132Z,90.90
2019-05-23T21:56:58.699Z,91.50
2019-05-23T21:59:28.373Z,92.00
2019-05-23T22:02:16.735Z,92.90
2019-05-23T22:04:48.128Z,93.60
2019-05-23T22:07:17.756Z,94.10
2019-05-23T22:09:47.688Z,94.40
2019-05-23T22:12:18.062Z,94.80
2019-05-23T22:14:48.534Z,95.80
2019-05-23T22:17:19.735Z,97.60
2019-05-23T22:19:49.286Z,98.10
2019-05-23T22:22:19.362Z,98.60
2019-05-23T22:24:48.968Z,97.30
2019-05-23T22:27:18.862Z,97.70
2019-05-23T22:29:48.532Z,98.30
2019-05-23T22:32:20.243Z,98.10
2019-05-23T22:34:51.972Z,98.00
2019-05-23T22:37:22.465Z,97.70
2019-05-23T22:39:52.046Z,97.40
2019-05-23T22:42:21.676Z,97.80
2019-05-23T22:44:51.311Z,98.30
2019-05-23T22:47:20.982Z,98.60
2019-05-23T22:49:50.765Z,98.50
2019-05-23T22:52:20.563Z,99.00
2019-05-23T22:54:50.135Z,98.90
2019-05-23T22:57:19.876Z,99.10
2019-05-23T22:59:49.515Z,99.30
2019-05-23T23:02:19.260Z,99.30
2019-05-23T23:04:49.253Z,98.70
2019-05-23T23:07:20.791Z,97.70
2019-05-23T23:09:50.420Z,97.00
2019-05-23T23:12:20.099Z,97.00
2019-05-23T23:14:49.660Z,97.40
2019-05-23T23:17:20.133Z,97.60
2019-05-23T23:19:49.728Z,97.80
2019-05-23T23:22:19.413Z,97.90
2019-05-23T23:24:49.037Z,98.70
2019-05-23T23:27:20.260Z,98.80
2019-05-23T23:29:51.628Z,98.90
2019-05-23T23:32:21.370Z,98.90
2019-05-23T23:34:51.057Z,99.90
2019-05-23T23:37:20.946Z,99.90
2019-05-23T23:39:50.645Z,99.90
2019-05-23T23:42:20.250Z,99.90
2019-05-23T23:44:49.197Z,99.90
2019-05-23T23:47:36.220Z,99.90
2019-05-23T23:50:25.531Z,99.80
2019-05-23T23:53:12.901Z,99.90
2019-05-23T23:56:01.752Z,99.90
2019-05-23T23:58:31.163Z,99.90
